Погода Кичевона неделю

Кичево, Македония

13 - 19 июля
  • 13июля
    Сегодня
    +15°
    +34°
    Ясно и безоблачно
    ВремяПогодаТемператураВлажностьДавлениеВетер, м/сВероятность осадков
    02:00Ясно и безоблачно+15°C77 %699 мм0.7 м/с2 %
    05:00Ясно и безоблачно+15°C73 %698 мм1.0 м/с2 %
    08:00Ясно и безоблачно+23°C64 %701 мм0.2 м/с2 %
    11:00Ясно и безоблачно+30°C38 %701 мм0.4 м/с2 %
    14:00Ясно и безоблачно+33°C29 %701 мм1.0 м/с2 %
    17:00Практически безоблачно+34°C31 %701 мм1.7 м/с2 %
    20:00Практически безоблачно+26°C63 %700 мм1.6 м/с2 %
    23:00Ясно и безоблачно+19°C86 %699 мм1.1 м/с2 %
  • 14июля
    Воскресенье
    +16°
    +34°
    Практически безоблачно
    ВремяПогодаТемператураВлажностьДавлениеВетер, м/сВероятность осадков
    02:00Ясно и безоблачно+16°C82 %699 мм0.8 м/с2 %
    05:00Ясно и безоблачно+16°C64 %699 мм0.5 м/с2 %
    08:00Ясно и безоблачно+23°C55 %701 мм0.5 м/с2 %
    11:00Ясно и безоблачно+31°C34 %702 мм0.5 м/с2 %
    14:00Практически безоблачно+34°C30 %702 мм0.1 м/с3 %
    17:00Ясно и безоблачно+31°C48 %701 мм1.3 м/с10 %
    20:00Ясно и безоблачно+27°C61 %701 мм0.5 м/с2 %
    23:00Ясно и безоблачно+19°C83 %700 мм1.0 м/с2 %
  • 15июля
    Понедельник
    +16°
    +34°
    Ясно и безоблачно
    ВремяПогодаТемператураВлажностьДавлениеВетер, м/сВероятность осадков
    02:00Ясно и безоблачно+16°C79 %699 мм0.8 м/с2 %
    05:00Ясно и безоблачно+17°C64 %699 мм1.0 м/с2 %
    08:00Ясно и безоблачно+23°C56 %701 мм0.4 м/с2 %
    11:00Ясно и безоблачно+31°C36 %702 мм1.7 м/с2 %
    14:00Ясно и безоблачно+33°C27 %702 мм2.2 м/с2 %
    17:00Ясно и безоблачно+34°C27 %701 мм1.9 м/с2 %
    20:00Ясно и безоблачно+26°C50 %700 мм1.7 м/с2 %
    23:00Ясно и безоблачно+20°C61 %700 мм1.5 м/с2 %
  • 16июля
    Вторник
    +13°
    +35°
    Ясно и безоблачно
    ВремяПогодаТемператураВлажностьДавлениеВетер, м/сВероятность осадков
    02:00Ясно и безоблачно+18°C60 %700 мм0.9 м/с2 %
    05:00Ясно и безоблачно+17°C57 %699 мм0.7 м/с2 %
    08:00Ясно и безоблачно+23°C53 %701 мм0.2 м/с2 %
    11:00Ясно и безоблачно+31°C30 %702 мм0.9 м/с2 %
    14:00Ясно и безоблачно+34°C22 %702 мм1.4 м/с2 %
    17:00Ясно и безоблачно+34°C20 %701 мм1.2 м/с4 %
    20:00Практически безоблачно+28°C32 %700 мм1.1 м/с2 %
    23:00Ясно и безоблачно+18°C65 %699 мм1.2 м/с2 %
  • 17июля
    Среда
    +17°
    +35°
    Ясно и безоблачно
    ВремяПогодаТемператураВлажностьДавлениеВетер, м/сВероятность осадков
    02:00Ясно и безоблачно+16°C69 %699 мм0.9 м/с2 %
    05:00Ясно и безоблачно+14°C62 %699 мм1.4 м/с2 %
    08:00Ясно и безоблачно+23°C49 %702 мм0.3 м/с2 %
    11:00Ясно и безоблачно+31°C31 %703 мм0.7 м/с2 %
    14:00Ясно и безоблачно+34°C24 %703 мм1.3 м/с6 %
    17:00Облачно с прояснениями+35°C27 %702 мм1.8 м/с8 %
    20:00Небольшая облачность+26°C54 %701 мм1.4 м/с3 %
    23:00Ясно и безоблачно+20°C70 %700 мм1.0 м/с2 %
Мы используем cookies
Соглашаюсь